Strona główna
METAR-TAF:

METAR-TAF

Lotnisko :

Doylestown Airport

Doylestown, Pensylwania, Stany Zjednoczone

Szerokość geograficzna: 40-19-48N, Długość geograficzna: 075-07-21W, wysokość: 120 m

Aktualna obserwacja pogody

Raport powstał 34 minut temu, godzina 22:21 UTC
Wiatr 9 kt od północ
Temperatura 3°C
Wilgotność 93%
Ciśnienie 1010 hPa
Widzialność: 16.1 km
Przerywane chmury na wysokości 800 ft
Zachmurzenie całkowite na wysokości 1200 ft
słaby deszcz

METAR: KDYL 162221Z AUTO 35009KT 10SM -RA BKN008 OVC012 03/02 A2982 RMK AO2 CIG 005V010 P0002 T00280017

czas: 17:55 (22:55 UTC)


TAF: brakujący

Obserwacja i prognoza pogody dla ponad 4000 lotnisk (raport METAR i TAF).

Dostępne stacje oznaczono żółtymi i czerwonymi punktami na mapie.

Najedź kursorem aby zobaczyć nazwę stacji.

Kliknij aby zobaczyć obserwacje i prognozy pogody.

Aby zmienić mapę: kliknij na zielony przycisk z czarnym krzyżykiem, aby powiększyć; na zielony przycisk z myślnikiem, aby pomniejszyć; na zielone strzałki, aby przejść do map sąsiednich.


METAR-TAF: